Time;durP1;ratioP1;P1;durP2;ratioP2;P2;SDS_P1;SDS_P2;PMS_P1;PMS_P2;Temp;Humidity;BMP_temperature;BMP_pressure;BME280_temperature;BME280_humidity;BME280_pressure;Samples;Min_cycle;Max_cycle;Signal;HPM_P1;HPM_P2
2023/06/27 00:00:30;;;;;;;63.00;56.88;;;26.60;66.20;;;;;;4663145;56;21076;-37
2023/06/27 00:05:32;;;;;;;61.72;55.67;;;26.60;66.20;;;;;;4697143;55;21060;-37
2023/06/27 00:10:33;;;;;;;60.78;55.05;;;26.60;66.80;;;;;;4841894;55;21571;-36
2023/06/27 00:15:34;;;;;;;60.42;54.47;;;26.70;66.30;;;;;;4658952;60;21083;-37
2023/06/27 00:20:35;;;;;;;59.65;53.92;;;26.60;66.20;;;;;;4756239;55;21483;-38
2023/06/27 00:25:36;;;;;;;59.42;53.67;;;26.60;66.20;;;;;;4658977;60;21072;-37
2023/06/27 00:30:37;;;;;;;60.90;54.90;;;26.60;66.20;;;;;;4751293;56;21020;-35
2023/06/27 00:35:39;;;;;;;55.20;49.92;;;26.60;66.10;;;;;;4658413;60;21534;-36
2023/06/27 00:40:40;;;;;;;53.97;48.75;;;26.60;66.00;;;;;;4658562;56;21004;-37
2023/06/27 00:45:40;;;;;;;56.25;50.70;;;26.60;66.00;;;;;;4749978;55;21309;-34
2023/06/27 00:50:45;;;;;;;56.13;50.72;;;26.60;66.00;;;;;;4658541;60;21072;-36
2023/06/27 00:55:46;;;;;;;55.25;49.95;;;26.60;66.00;;;;;;4723666;56;21032;-38
2023/06/27 01:00:50;;;;;;;54.35;49.17;;;26.60;66.00;;;;;;4668097;56;21055;-37
2023/06/27 01:05:54;;;;;;;52.45;47.33;;;26.60;65.90;;;;;;4658475;60;21095;-36
2023/06/27 01:11:09;;;;;;;52.62;47.47;;;26.60;66.00;;;;;;4659154;60;21064;-37
2023/06/27 01:16:10;;;;;;;53.28;48.17;;;26.60;65.80;;;;;;4669885;56;21008;-37
2023/06/27 01:21:12;;;;;;;49.70;44.88;;;26.60;65.80;;;;;;4706700;55;21092;-36
2023/06/27 01:26:14;;;;;;;51.72;46.53;;;26.60;65.80;;;;;;4694491;56;21463;-38
2023/06/27 01:31:27;;;;;;;49.72;44.88;;;26.60;65.80;;;;;;4668660;56;21096;-35
2023/06/27 01:36:56;;;;;;;48.30;43.60;;;26.60;65.60;;;;;;4683880;56;21051;-40
2023/06/27 01:42:03;;;;;;;48.60;43.83;;;26.60;65.70;;;;;;4731128;56;21115;-36
2023/06/27 01:47:05;;;;;;;49.00;44.20;;;26.60;65.60;;;;;;4658561;59;22326;-37
2023/06/27 01:52:10;;;;;;;47.38;42.88;;;26.60;65.50;;;;;;4789675;56;21008;-38
2023/06/27 01:57:11;;;;;;;47.05;42.50;;;26.60;65.70;;;;;;4691798;56;21574;-36
2023/06/27 02:02:12;;;;;;;47.03;42.42;;;26.60;65.50;;;;;;4709744;55;21047;-37
2023/06/27 02:07:13;;;;;;;45.85;41.35;;;26.50;65.40;;;;;;4679600;56;21012;-37
2023/06/27 02:12:14;;;;;;;44.30;40.00;;;26.60;65.40;;;;;;4674295;56;21084;-36
2023/06/27 02:17:14;;;;;;;45.42;41.03;;;26.50;65.30;;;;;;4658597;60;21167;-36
2023/06/27 02:22:15;;;;;;;44.40;39.97;;;26.50;65.40;;;;;;4662360;56;21020;-39
2023/06/27 02:27:16;;;;;;;43.87;39.47;;;26.50;65.30;;;;;;4658732;60;21068;-38
2023/06/27 02:32:17;;;;;;;44.50;40.17;;;26.50;65.30;;;;;;4696708;56;21075;-33
2023/06/27 02:37:18;;;;;;;43.50;39.38;;;26.50;65.30;;;;;;4658206;60;21096;-36
2023/06/27 02:42:19;;;;;;;40.58;36.67;;;26.50;65.10;;;;;;4714625;56;21467;-36
2023/06/27 02:47:20;;;;;;;41.00;37.10;;;26.50;65.10;;;;;;4675516;56;21470;-36
2023/06/27 02:52:21;;;;;;;38.00;34.35;;;26.50;64.90;;;;;;4698767;55;21035;-37
2023/06/27 02:57:21;;;;;;;39.95;35.90;;;26.50;64.70;;;;;;4836874;55;21016;-37
2023/06/27 03:02:22;;;;;;;39.85;35.97;;;26.50;64.90;;;;;;4666911;55;21587;-40
2023/06/27 03:07:23;;;;;;;39.58;35.67;;;26.50;64.70;;;;;;4724843;56;21020;-38
2023/06/27 03:12:24;;;;;;;38.83;35.10;;;26.50;65.10;;;;;;4658799;60;21008;-37
2023/06/27 03:17:25;;;;;;;38.42;34.70;;;26.50;64.80;;;;;;4658809;55;21028;-33
2023/06/27 03:22:26;;;;;;;38.55;34.95;;;26.50;64.70;;;;;;4658128;56;21534;-37
2023/06/27 03:27:26;;;;;;;38.00;34.25;;;26.50;64.80;;;;;;4658432;60;21481;-37
2023/06/27 03:32:27;;;;;;;36.15;32.70;;;26.50;64.40;;;;;;4661443;56;21020;-37
2023/06/27 03:37:28;;;;;;;36.45;32.75;;;26.50;64.70;;;;;;4701249;56;21036;-35
2023/06/27 03:42:29;;;;;;;35.08;31.58;;;26.50;64.10;;;;;;4773413;55;21384;-37
2023/06/27 03:47:30;;;;;;;36.22;32.63;;;26.50;64.40;;;;;;4709343;56;21104;-36
2023/06/27 03:52:31;;;;;;;35.47;31.98;;;26.50;64.40;;;;;;4766623;56;21557;-38
2023/06/27 03:57:31;;;;;;;33.13;29.95;;;26.50;64.30;;;;;;4692313;56;21012;-37
2023/06/27 04:02:32;;;;;;;34.08;30.77;;;26.50;64.00;;;;;;4681073;56;21028;-35
2023/06/27 04:07:33;;;;;;;34.72;31.27;;;26.50;64.30;;;;;;4776160;55;21035;-36
2023/06/27 04:12:34;;;;;;;32.45;29.30;;;26.50;64.10;;;;;;4658638;60;21031;-35
2023/06/27 04:17:35;;;;;;;33.17;29.98;;;26.50;64.10;;;;;;4722803;55;21016;-36
2023/06/27 04:22:36;;;;;;;32.95;29.83;;;26.50;64.40;;;;;;4658608;60;21020;-42
2023/06/27 04:27:39;;;;;;;32.47;29.30;;;26.40;63.90;;;;;;4733867;56;21013;-38
2023/06/27 04:32:40;;;;;;;32.28;29.05;;;26.50;63.90;;;;;;4831680;55;21072;-37
2023/06/27 04:37:41;;;;;;;31.20;28.05;;;26.50;63.90;;;;;;4658147;60;22486;-37
2023/06/27 04:42:42;;;;;;;30.33;27.25;;;26.50;64.10;;;;;;4658362;60;21028;-37
2023/06/27 04:47:42;;;;;;;31.80;28.60;;;26.40;63.60;;;;;;4676280;56;21082;-33
2023/06/27 04:52:43;;;;;;;28.85;26.10;;;26.40;63.80;;;;;;4750307;55;21494;-38
2023/06/27 04:57:44;;;;;;;30.37;27.30;;;26.50;64.10;;;;;;4658801;60;21080;-38
2023/06/27 05:02:45;;;;;;;29.12;26.33;;;26.40;63.80;;;;;;4658005;60;21032;-37
2023/06/27 05:07:46;;;;;;;29.40;26.50;;;26.40;63.80;;;;;;4716298;56;21702;-36
2023/06/27 05:12:47;;;;;;;29.12;26.33;;;26.40;63.70;;;;;;4696187;56;21511;-34
2023/06/27 05:18:20;;;;;;;29.08;26.25;;;26.40;63.90;;;;;;4713133;55;20996;-37
2023/06/27 05:23:22;;;;;;;28.98;26.15;;;26.40;63.90;;;;;;4698727;56;21079;-40
2023/06/27 05:28:22;;;;;;;27.98;25.10;;;26.40;63.60;;;;;;4809274;55;21088;-37
2023/06/27 05:33:23;;;;;;;28.73;25.83;;;26.40;63.80;;;;;;4733276;56;21043;-38
2023/06/27 05:38:24;;;;;;;28.15;25.30;;;26.40;63.90;;;;;;4665173;56;21541;-35
2023/06/27 05:43:25;;;;;;;27.83;24.92;;;26.40;63.70;;;;;;4709460;56;21035;-40
2023/06/27 05:48:26;;;;;;;26.83;24.17;;;26.40;63.80;;;;;;4658744;60;21035;-38
2023/06/27 05:53:26;;;;;;;26.55;23.73;;;26.40;63.80;;;;;;4665528;56;21587;-39
2023/06/27 05:58:27;;;;;;;27.20;24.42;;;26.40;63.80;;;;;;4675370;56;21019;-37
2023/06/27 06:03:28;;;;;;;27.77;25.02;;;26.40;64.50;;;;;;4658169;60;21099;-37
2023/06/27 06:08:29;;;;;;;27.40;24.58;;;26.40;63.70;;;;;;4680691;55;21004;-40
2023/06/27 06:13:30;;;;;;;26.15;23.62;;;26.40;63.70;;;;;;4673177;56;21495;-37
2023/06/27 06:18:30;;;;;;;24.73;22.13;;;26.40;63.70;;;;;;4735806;55;21100;-40
2023/06/27 06:23:31;;;;;;;27.52;24.75;;;26.40;63.70;;;;;;4715177;55;21036;-38
2023/06/27 06:28:32;;;;;;;26.20;23.60;;;26.40;63.70;;;;;;4692129;55;21028;-40
2023/06/27 06:33:33;;;;;;;26.20;23.50;;;26.40;63.70;;;;;;4664355;56;21048;-34
2023/06/27 06:38:34;;;;;;;26.02;23.40;;;26.40;63.70;;;;;;4656578;60;21092;-38
2023/06/27 06:43:34;;;;;;;26.30;23.70;;;26.50;63.90;;;;;;4660559;55;21068;-34
2023/06/27 06:48:36;;;;;;;25.73;23.00;;;26.40;63.80;;;;;;4657557;57;21116;-34
2023/06/27 06:53:36;;;;;;;25.35;22.83;;;26.40;63.80;;;;;;4681778;56;21498;-39
2023/06/27 06:58:38;;;;;;;25.88;23.08;;;26.40;63.80;;;;;;4656890;60;21032;-39
2023/06/27 07:03:39;;;;;;;25.48;22.77;;;26.40;63.60;;;;;;4688383;55;21578;-38
2023/06/27 07:08:39;;;;;;;25.50;22.80;;;26.50;63.60;;;;;;4666703;56;21100;-36
2023/06/27 07:13:40;;;;;;;24.73;22.23;;;26.40;63.50;;;;;;4658858;56;21524;-43
2023/06/27 07:18:41;;;;;;;25.12;22.42;;;26.40;63.60;;;;;;4739025;55;21071;-39
2023/06/27 07:23:42;;;;;;;25.42;22.77;;;26.50;63.60;;;;;;4729019;55;21436;-41
2023/06/27 07:28:43;;;;;;;25.83;23.15;;;26.50;63.70;;;;;;4705223;56;21020;-37
2023/06/27 07:33:43;;;;;;;24.42;22.02;;;26.50;64.10;;;;;;4683560;55;21081;-37
2023/06/27 07:38:45;;;;;;;25.60;22.48;;;26.50;63.80;;;;;;4711909;55;21044;-35
2023/06/27 07:43:46;;;;;;;25.40;22.73;;;26.60;63.60;;;;;;4665823;56;21044;-34
2023/06/27 07:48:47;;;;;;;24.58;22.02;;;26.70;64.60;;;;;;4663872;55;21011;-36
2023/06/27 07:53:48;;;;;;;23.87;21.37;;;26.70;64.30;;;;;;4673113;56;21047;-33
2023/06/27 07:58:49;;;;;;;25.08;22.48;;;26.70;64.30;;;;;;4656399;60;21047;-35
2023/06/27 08:03:50;;;;;;;24.40;21.75;;;26.80;64.50;;;;;;4689084;56;21052;-37
2023/06/27 08:08:51;;;;;;;24.95;22.35;;;26.80;64.40;;;;;;4658506;56;21439;-38
2023/06/27 08:13:51;;;;;;;23.38;21.02;;;26.90;64.60;;;;;;4673806;56;21008;-32
2023/06/27 08:18:52;;;;;;;30.83;22.70;;;26.90;64.60;;;;;;4665630;56;21562;-34
2023/06/27 08:23:53;;;;;;;24.95;22.23;;;26.90;64.80;;;;;;4670749;56;21040;-33
2023/06/27 08:28:54;;;;;;;24.85;22.23;;;26.90;64.90;;;;;;4664497;56;21080;-36
2023/06/27 08:33:55;;;;;;;26.40;22.80;;;26.90;64.80;;;;;;4676646;56;21044;-37
2023/06/27 08:38:56;;;;;;;28.60;23.85;;;26.90;65.40;;;;;;4658098;56;21553;-36
2023/06/27 08:43:57;;;;;;;24.60;21.90;;;26.90;65.30;;;;;;4686339;55;21136;-37
2023/06/27 08:49:03;;;;;;;26.20;22.90;;;26.90;65.30;;;;;;4706464;55;21482;-37
2023/06/27 08:54:15;;;;;;;25.63;22.53;;;26.80;65.20;;;;;;4702721;56;21068;-39
2023/06/27 08:59:19;;;;;;;25.30;22.65;;;26.80;65.40;;;;;;4670086;56;21083;-39
2023/06/27 09:04:21;;;;;;;26.17;23.30;;;26.70;65.40;;;;;;4657741;60;21079;-41
2023/06/27 09:09:22;;;;;;;24.27;21.83;;;26.70;66.10;;;;;;4658849;60;21097;-39
2023/06/27 09:14:23;;;;;;;25.55;22.08;;;26.70;65.50;;;;;;4685522;55;21100;-38
2023/06/27 09:19:24;;;;;;;25.48;22.98;;;26.70;65.60;;;;;;4658749;60;21119;-41
2023/06/27 09:24:25;;;;;;;25.30;22.55;;;26.70;65.50;;;;;;4658105;60;21092;-37
2023/06/27 09:29:34;;;;;;;24.08;21.62;;;26.70;65.60;;;;;;4702752;55;21506;-40
2023/06/27 09:34:36;;;;;;;25.12;22.20;;;26.70;65.60;;;;;;4687891;56;21056;-42
2023/06/27 09:39:37;;;;;;;24.27;21.75;;;26.70;65.60;;;;;;4682795;55;21074;-35
2023/06/27 09:44:38;;;;;;;22.85;20.37;;;26.70;65.70;;;;;;4657915;60;21202;-38
2023/06/27 09:49:43;;;;;;;26.15;22.40;;;26.70;65.70;;;;;;4658757;60;21083;-38
2023/06/27 09:54:46;;;;;;;24.08;21.48;;;26.70;65.70;;;;;;4727780;55;21689;-38
2023/06/27 09:59:47;;;;;;;25.67;22.70;;;26.70;65.70;;;;;;4658620;60;21976;-39
2023/06/27 10:04:48;;;;;;;23.73;21.20;;;26.70;65.80;;;;;;4707928;56;21399;-36
2023/06/27 10:09:50;;;;;;;24.55;21.95;;;26.70;65.70;;;;;;4712996;56;21036;-39
2023/06/27 10:14:52;;;;;;;25.58;22.83;;;26.70;65.80;;;;;;4736173;56;21099;-40
2023/06/27 10:19:53;;;;;;;23.70;21.27;;;26.70;65.80;;;;;;4658353;60;21083;-39
2023/06/27 10:24:59;;;;;;;24.63;22.13;;;26.70;65.80;;;;;;4724105;55;21005;-38
2023/06/27 10:30:22;;;;;;;23.90;21.47;;;26.70;65.80;;;;;;4675140;56;21023;-39
2023/06/27 10:35:25;;;;;;;23.75;21.35;;;26.70;65.80;;;;;;4673803;55;22399;-37
2023/06/27 10:40:26;;;;;;;25.08;22.48;;;26.70;65.80;;;;;;4708784;56;21043;-37
2023/06/27 10:45:28;;;;;;;24.23;21.80;;;26.70;65.80;;;;;;4749875;55;21620;-37
2023/06/27 10:50:32;;;;;;;22.08;19.92;;;26.70;65.80;;;;;;4697899;56;21148;-38
2023/06/27 10:55:33;;;;;;;22.58;20.27;;;26.70;65.80;;;;;;4774035;55;21542;-38
2023/06/27 11:00:34;;;;;;;24.70;22.08;;;26.70;65.80;;;;;;4658408;56;21518;-37
2023/06/27 11:05:45;;;;;;;25.02;22.42;;;26.70;65.80;;;;;;4684219;56;21052;-39
2023/06/27 11:10:50;;;;;;;23.35;20.95;;;26.70;65.90;;;;;;4847302;56;21517;-35
2023/06/27 11:15:52;;;;;;;23.20;20.80;;;26.70;65.90;;;;;;4658762;60;21004;-35
2023/06/27 11:20:54;;;;;;;23.12;20.73;;;26.70;65.80;;;;;;4658485;60;21419;-35
2023/06/27 11:25:55;;;;;;;23.60;21.30;;;26.70;65.80;;;;;;4713281;56;21060;-37
2023/06/27 11:31:00;;;;;;;23.55;21.15;;;26.70;65.80;;;;;;4658323;60;21181;-38
2023/06/27 11:36:01;;;;;;;24.50;22.05;;;26.70;65.90;;;;;;4673953;56;21054;-40
2023/06/27 11:41:02;;;;;;;23.45;21.15;;;26.70;65.90;;;;;;4658774;60;21522;-37
2023/06/27 11:46:03;;;;;;;24.98;22.48;;;26.70;65.80;;;;;;4671373;55;20996;-37
2023/06/27 11:51:10;;;;;;;22.42;20.17;;;26.70;65.90;;;;;;4677744;56;21000;-38
2023/06/27 11:56:11;;;;;;;24.40;22.00;;;26.70;65.80;;;;;;4667312;55;21525;-37
2023/06/27 12:01:18;;;;;;;25.05;22.55;;;26.70;65.80;;;;;;4747499;56;21094;-43
2023/06/27 12:06:31;;;;;;;23.80;21.40;;;26.70;65.80;;;;;;4658528;57;21047;-41
2023/06/27 12:11:34;;;;;;;24.10;21.70;;;26.70;65.90;;;;;;4740384;56;21503;-37
2023/06/27 12:16:35;;;;;;;23.98;21.58;;;26.70;65.80;;;;;;4716220;56;21978;-39
2023/06/27 12:21:36;;;;;;;23.90;21.50;;;26.70;65.90;;;;;;4688167;55;21040;-37
2023/06/27 12:26:37;;;;;;;24.60;22.02;;;26.70;65.90;;;;;;4681440;55;21372;-36
2023/06/27 12:31:39;;;;;;;22.95;20.75;;;26.70;65.80;;;;;;4724916;55;21104;-38
2023/06/27 12:36:39;;;;;;;24.10;21.65;;;26.70;65.90;;;;;;4683218;56;21437;-36
2023/06/27 12:41:40;;;;;;;24.55;22.05;;;26.70;65.90;;;;;;4723239;56;22060;-40
2023/06/27 12:46:42;;;;;;;22.37;20.17;;;26.70;65.90;;;;;;4658613;56;21031;-39
2023/06/27 12:51:43;;;;;;;23.58;21.27;;;26.80;66.20;;;;;;4723350;56;21598;-41
2023/06/27 12:56:43;;;;;;;24.27;21.87;;;26.80;66.00;;;;;;4663541;56;21483;-39
2023/06/27 13:01:54;;;;;;;22.50;20.27;;;26.80;66.00;;;;;;4677121;56;21673;-39
2023/06/27 13:06:56;;;;;;;23.85;21.45;;;26.70;65.90;;;;;;4705279;55;21451;-40
2023/06/27 13:11:57;;;;;;;23.87;21.37;;;26.80;66.00;;;;;;4759352;55;21187;-38
2023/06/27 13:16:58;;;;;;;22.62;20.42;;;26.80;66.00;;;;;;4685610;56;21024;-39
2023/06/27 13:21:59;;;;;;;22.83;20.55;;;26.80;66.00;;;;;;4708876;56;21036;-38
2023/06/27 13:27:00;;;;;;;24.02;21.62;;;26.70;65.90;;;;;;4658610;60;21134;-38
2023/06/27 13:32:01;;;;;;;22.27;20.12;;;26.70;65.90;;;;;;4680822;56;21019;-39
2023/06/27 13:37:02;;;;;;;22.45;20.25;;;26.80;65.90;;;;;;4658312;60;21083;-38
2023/06/27 13:42:03;;;;;;;22.83;20.52;;;26.80;66.00;;;;;;4765529;55;21641;-39
2023/06/27 13:47:05;;;;;;;22.85;20.70;;;26.80;65.90;;;;;;4774142;55;21031;-37
2023/06/27 13:52:06;;;;;;;22.70;20.40;;;26.80;66.00;;;;;;4807281;55;21036;-38
2023/06/27 13:57:09;;;;;;;23.42;21.08;;;26.80;65.90;;;;;;4685077;55;21959;-39
2023/06/27 14:02:10;;;;;;;23.33;21.00;;;26.80;66.00;;;;;;4694424;56;21482;-35
2023/06/27 14:07:11;;;;;;;22.52;20.33;;;26.80;65.90;;;;;;4658779;60;21179;-37
2023/06/27 14:12:13;;;;;;;23.17;20.85;;;26.80;65.90;;;;;;4729617;55;21080;-38
2023/06/27 14:17:14;;;;;;;21.87;19.65;;;26.80;65.90;;;;;;4669277;56;21462;-37
2023/06/27 14:22:14;;;;;;;22.45;20.15;;;26.80;65.90;;;;;;4681787;56;21044;-38
2023/06/27 14:27:16;;;;;;;21.87;19.75;;;26.80;65.80;;;;;;4658599;60;21024;-37
2023/06/27 14:32:17;;;;;;;22.20;20.10;;;26.80;65.80;;;;;;4658906;60;21582;-38
2023/06/27 14:37:17;;;;;;;23.20;20.90;;;26.80;65.80;;;;;;4715176;56;21036;-37
2023/06/27 14:42:19;;;;;;;22.05;19.85;;;26.80;65.90;;;;;;4658442;60;21020;-36
2023/06/27 14:47:20;;;;;;;21.77;19.58;;;26.80;65.80;;;;;;4730333;55;21581;-35
2023/06/27 14:52:20;;;;;;;23.70;21.35;;;26.80;65.80;;;;;;4658733;60;21024;-38
2023/06/27 14:57:22;;;;;;;21.52;19.35;;;26.80;65.70;;;;;;4658426;60;21109;-38
2023/06/27 15:02:22;;;;;;;21.30;19.17;;;26.80;65.70;;;;;;4710060;56;21542;-37
2023/06/27 15:07:23;;;;;;;22.50;20.20;;;26.80;65.80;;;;;;4675828;56;21072;-36
2023/06/27 15:12:24;;;;;;;22.92;20.52;;;26.80;65.70;;;;;;4716992;56;21024;-37
2023/06/27 15:17:25;;;;;;;22.60;20.40;;;26.80;65.80;;;;;;4658761;60;21068;-37
2023/06/27 15:22:26;;;;;;;22.58;20.35;;;26.80;65.80;;;;;;4673310;56;21534;-35
2023/06/27 15:27:30;;;;;;;22.50;20.20;;;26.80;66.40;;;;;;4754696;55;21021;-35
2023/06/27 15:32:31;;;;;;;21.85;19.73;;;26.80;65.80;;;;;;4658637;60;21040;-35
2023/06/27 15:37:32;;;;;;;22.27;20.10;;;26.80;66.40;;;;;;4754023;56;21498;-37
2023/06/27 15:42:34;;;;;;;22.13;19.83;;;26.80;65.80;;;;;;4694277;55;21035;-38
2023/06/27 15:47:35;;;;;;;23.23;20.92;;;26.80;65.80;;;;;;4658651;60;21564;-37
2023/06/27 15:52:36;;;;;;;22.65;20.35;;;26.80;66.40;;;;;;4658228;60;21095;-37
2023/06/27 15:57:37;;;;;;;23.15;20.95;;;26.80;65.80;;;;;;4658671;57;21134;-38
2023/06/27 16:02:40;;;;;;;22.37;20.17;;;26.80;65.80;;;;;;4657742;60;21637;-38
2023/06/27 16:07:40;;;;;;;22.23;20.02;;;26.80;65.90;;;;;;4675403;55;21541;-39
2023/06/27 16:12:41;;;;;;;23.05;20.75;;;26.80;65.90;;;;;;4775910;55;21044;-39
2023/06/27 16:17:42;;;;;;;21.27;19.25;;;26.80;65.90;;;;;;4674880;55;21068;-38
2023/06/27 16:22:43;;;;;;;22.67;20.48;;;26.80;65.90;;;;;;4675460;55;21925;-40
2023/06/27 16:27:44;;;;;;;21.83;19.67;;;26.80;65.90;;;;;;4658882;56;21377;-37
2023/06/27 16:32:45;;;;;;;21.83;19.52;;;26.80;65.90;;;;;;4664647;56;21063;-36
2023/06/27 16:37:45;;;;;;;22.15;20.00;;;26.80;66.00;;;;;;4658575;56;21661;-36
2023/06/27 16:42:46;;;;;;;22.83;20.52;;;26.80;66.50;;;;;;4658543;60;21056;-38
2023/06/27 16:47:47;;;;;;;22.85;20.55;;;26.80;66.00;;;;;;4658586;60;21268;-35
2023/06/27 16:52:48;;;;;;;21.83;19.73;;;26.80;66.00;;;;;;4706168;55;21821;-38
2023/06/27 16:57:48;;;;;;;22.15;19.95;;;26.80;66.00;;;;;;4663618;56;21045;-38
2023/06/27 17:02:50;;;;;;;22.33;20.23;;;26.80;66.00;;;;;;4657957;60;21040;-37
2023/06/27 17:07:51;;;;;;;22.98;20.67;;;26.80;66.10;;;;;;4724313;55;21458;-38
2023/06/27 17:12:52;;;;;;;21.45;19.35;;;26.80;66.10;;;;;;4669628;56;21080;-39
2023/06/27 17:17:53;;;;;;;21.67;19.48;;;26.80;66.10;;;;;;4659048;60;21012;-36
2023/06/27 17:22:54;;;;;;;21.02;18.92;;;26.80;66.10;;;;;;4658609;60;21148;-37
2023/06/27 17:27:55;;;;;;;21.42;19.33;;;26.80;66.10;;;;;;4727312;55;20988;-37
2023/06/27 17:32:56;;;;;;;21.50;19.30;;;26.80;66.10;;;;;;4658857;60;21028;-39
2023/06/27 17:37:57;;;;;;;20.90;18.80;;;26.80;66.20;;;;;;4729382;55;21076;-37
2023/06/27 17:42:57;;;;;;;22.23;19.92;;;26.80;66.30;;;;;;4658279;60;21079;-35
2023/06/27 17:47:59;;;;;;;20.67;18.58;;;26.80;66.20;;;;;;4664392;56;21064;-36
2023/06/27 17:53:02;;;;;;;22.10;19.80;;;26.80;66.20;;;;;;4658531;60;21052;-37
2023/06/27 17:58:03;;;;;;;21.45;19.20;;;26.80;66.20;;;;;;4663113;56;21466;-38
2023/06/27 18:03:03;;;;;;;20.52;18.52;;;26.80;66.30;;;;;;4832531;56;21035;-38
2023/06/27 18:08:15;;;;;;;21.83;19.62;;;26.80;66.20;;;;;;4666648;56;21064;-37
2023/06/27 18:13:16;;;;;;;21.02;18.85;;;26.80;66.20;;;;;;4665021;56;21068;-35
2023/06/27 18:18:17;;;;;;;21.85;19.55;;;26.80;66.20;;;;;;4671416;56;21136;-38
2023/06/27 18:23:17;;;;;;;21.37;19.17;;;26.80;66.20;;;;;;4665711;56;21111;-37
2023/06/27 18:28:18;;;;;;;20.58;18.58;;;26.80;66.30;;;;;;4685285;56;21072;-39
2023/06/27 18:33:19;;;;;;;20.62;18.42;;;26.80;66.20;;;;;;4717627;55;21011;-38
2023/06/27 18:38:20;;;;;;;20.30;18.30;;;26.80;66.10;;;;;;4668773;56;21028;-35
2023/06/27 18:43:21;;;;;;;19.85;17.77;;;26.80;66.20;;;;;;4679011;56;21506;-38
2023/06/27 18:48:21;;;;;;;20.80;18.67;;;26.80;66.10;;;;;;4726704;56;21027;-38
2023/06/27 18:53:22;;;;;;;20.40;18.30;;;26.80;66.10;;;;;;4688875;56;21019;-39
2023/06/27 18:58:23;;;;;;;20.17;18.17;;;26.80;66.10;;;;;;4658748;60;21493;-38
2023/06/27 19:03:24;;;;;;;20.15;18.10;;;26.80;66.10;;;;;;4746082;55;21494;-37
2023/06/27 19:08:25;;;;;;;18.20;16.40;;;26.80;66.10;;;;;;4665027;56;21083;-37
2023/06/27 19:13:26;;;;;;;19.12;17.23;;;26.80;66.00;;;;;;4658446;60;21103;-37
2023/06/27 19:18:27;;;;;;;19.60;17.70;;;26.80;66.00;;;;;;4658910;60;21602;-37
2023/06/27 19:23:27;;;;;;;19.50;17.60;;;26.80;66.00;;;;;;4837738;55;21052;-40
2023/06/27 19:28:29;;;;;;;20.05;18.05;;;26.80;65.90;;;;;;4745805;56;21515;-38
2023/06/27 19:33:30;;;;;;;18.20;16.40;;;26.80;65.80;;;;;;4758756;56;21016;-35
2023/06/27 19:38:30;;;;;;;18.60;16.67;;;26.80;65.80;;;;;;4727751;55;21507;-39
2023/06/27 19:43:32;;;;;;;19.17;17.27;;;26.80;65.70;;;;;;4689312;56;21096;-37
2023/06/27 19:48:34;;;;;;;19.02;17.12;;;26.70;65.50;;;;;;4658928;60;21063;-39
2023/06/27 19:53:35;;;;;;;18.23;16.50;;;26.80;65.50;;;;;;4676049;56;21554;-37
2023/06/27 19:58:36;;;;;;;18.60;16.80;;;26.80;65.50;;;;;;4673210;56;21030;-37
2023/06/27 20:03:36;;;;;;;17.05;15.38;;;26.80;65.40;;;;;;4716049;56;21055;-38
2023/06/27 20:08:37;;;;;;;18.37;16.45;;;26.80;65.20;;;;;;4658828;60;21016;-39
2023/06/27 20:13:38;;;;;;;17.80;16.00;;;26.80;65.10;;;;;;4706330;56;21310;-37
2023/06/27 20:18:39;;;;;;;18.87;16.95;;;26.80;65.00;;;;;;4658889;60;21533;-37
2023/06/27 20:23:42;;;;;;;18.10;16.30;;;26.70;65.00;;;;;;4658760;60;21092;-38
2023/06/27 20:28:46;;;;;;;17.52;15.80;;;26.80;65.00;;;;;;4666880;56;21542;-38
2023/06/27 20:33:47;;;;;;;16.92;15.32;;;26.80;64.90;;;;;;4659093;60;21463;-37
2023/06/27 20:38:48;;;;;;;18.02;16.15;;;26.70;64.80;;;;;;4685211;56;21498;-38
2023/06/27 20:43:52;;;;;;;17.23;15.63;;;26.70;64.80;;;;;;4658305;60;21016;-37
2023/06/27 20:48:53;;;;;;;16.50;14.87;;;26.70;64.80;;;;;;4758083;55;21523;-37
2023/06/27 20:53:54;;;;;;;17.27;15.57;;;26.70;64.60;;;;;;4669737;56;21072;-37
2023/06/27 20:58:58;;;;;;;16.20;14.60;;;26.70;64.60;;;;;;4709383;56;21004;-37
2023/06/27 21:03:59;;;;;;;16.35;14.75;;;26.70;64.40;;;;;;4692804;56;21578;-39
2023/06/27 21:09:00;;;;;;;16.40;14.70;;;26.70;64.50;;;;;;4676889;55;22016;-39
2023/06/27 21:14:06;;;;;;;17.10;14.38;;;26.70;64.50;;;;;;4665792;56;21649;-37
2023/06/27 21:19:07;;;;;;;15.80;14.30;;;26.70;64.50;;;;;;4659300;60;21012;-37
2023/06/27 21:24:08;;;;;;;16.45;14.75;;;26.70;64.40;;;;;;4666661;55;21475;-35
2023/06/27 21:29:09;;;;;;;15.30;13.88;;;26.70;64.30;;;;;;4722839;55;21083;-36
2023/06/27 21:34:10;;;;;;;15.48;13.90;;;26.70;64.20;;;;;;4707928;56;21096;-37
2023/06/27 21:39:10;;;;;;;16.02;14.40;;;26.70;64.30;;;;;;4692269;56;21024;-38
2023/06/27 21:44:11;;;;;;;15.18;13.57;;;26.70;64.30;;;;;;4707729;56;21490;-38
2023/06/27 21:49:12;;;;;;;14.30;12.90;;;26.70;64.30;;;;;;4731116;56;21357;-38
2023/06/27 21:54:13;;;;;;;15.63;14.00;;;26.70;64.20;;;;;;4674967;56;21040;-38
2023/06/27 21:59:14;;;;;;;15.13;13.57;;;26.70;64.10;;;;;;4788464;55;21479;-37
2023/06/27 22:04:15;;;;;;;14.25;12.88;;;26.70;64.00;;;;;;4670467;56;20992;-39
2023/06/27 22:09:15;;;;;;;14.73;13.23;;;26.70;64.10;;;;;;4678678;55;21035;-38
2023/06/27 22:14:16;;;;;;;13.82;12.32;;;26.70;64.00;;;;;;4658718;60;21494;-37
2023/06/27 22:19:18;;;;;;;13.82;12.43;;;26.70;64.00;;;;;;4719446;55;21028;-37
2023/06/27 22:24:19;;;;;;;13.40;12.02;;;26.60;63.90;;;;;;4669701;55;21573;-39
2023/06/27 22:29:20;;;;;;;13.60;12.30;;;26.70;64.00;;;;;;4658825;60;21085;-38
2023/06/27 22:34:20;;;;;;;13.18;11.80;;;26.60;63.90;;;;;;4695631;56;21107;-38
2023/06/27 22:39:21;;;;;;;13.80;11.85;;;26.60;63.90;;;;;;4696428;56;21502;-39
2023/06/27 22:44:22;;;;;;;12.85;11.65;;;26.60;64.00;;;;;;4685388;56;21108;-37
2023/06/27 22:49:23;;;;;;;13.68;12.37;;;26.60;63.90;;;;;;4741295;55;21501;-38
2023/06/27 22:54:24;;;;;;;13.18;11.98;;;26.60;63.90;;;;;;4692120;56;21031;-38
2023/06/27 22:59:25;;;;;;;12.07;10.88;;;26.60;63.90;;;;;;4658671;60;21016;-37
2023/06/27 23:04:26;;;;;;;12.37;11.18;;;26.60;63.90;;;;;;4741884;56;21039;-37
2023/06/27 23:09:27;;;;;;;12.48;11.38;;;26.60;63.80;;;;;;4670370;56;21091;-39
2023/06/27 23:14:28;;;;;;;13.32;11.68;;;26.70;64.00;;;;;;4711227;56;21510;-38
2023/06/27 23:19:30;;;;;;;11.82;10.68;;;26.70;64.00;;;;;;4680392;56;21039;-37
2023/06/27 23:24:31;;;;;;;11.55;10.45;;;26.70;64.10;;;;;;4672117;56;21486;-39
2023/06/27 23:29:35;;;;;;;11.95;10.75;;;26.70;64.00;;;;;;4796230;55;21072;-38
2023/06/27 23:34:36;;;;;;;11.80;10.70;;;26.60;63.90;;;;;;4665899;55;21502;-38
2023/06/27 23:39:37;;;;;;;11.45;10.38;;;26.70;64.10;;;;;;4734032;55;21043;-36
2023/06/27 23:44:38;;;;;;;12.00;10.80;;;26.70;64.00;;;;;;4658228;60;21032;-38
2023/06/27 23:49:39;;;;;;;12.37;11.07;;;26.70;64.00;;;;;;4773837;55;21067;-36
2023/06/27 23:54:39;;;;;;;11.43;10.40;;;26.70;64.10;;;;;;4658845;60;21482;-35
2023/06/27 23:59:40;;;;;;;11.27;10.18;;;26.70;64.10;;;;;;4728681;55;21020;-36
